sensor_id;sensor_type;location;lat;lon;timestamp;P1;durP1;ratioP1;P2;durP2;ratioP2
43606;SDS011;29197;44.788;10.366;2023-12-29T00:01:22;62.35;;;35.70;;
43606;SDS011;29197;44.788;10.366;2023-12-29T00:04:11;58.63;;;33.63;;
43606;SDS011;29197;44.788;10.366;2023-12-29T00:07:01;54.92;;;33.80;;
43606;SDS011;29197;44.788;10.366;2023-12-29T00:09:50;60.60;;;33.95;;
43606;SDS011;29197;44.788;10.366;2023-12-29T00:12:40;52.27;;;32.97;;
43606;SDS011;29197;44.788;10.366;2023-12-29T00:15:29;51.63;;;31.38;;
43606;SDS011;29197;44.788;10.366;2023-12-29T00:18:18;52.72;;;30.63;;
43606;SDS011;29197;44.788;10.366;2023-12-29T00:21:07;56.10;;;32.83;;
43606;SDS011;29197;44.788;10.366;2023-12-29T00:23:56;50.95;;;30.02;;
43606;SDS011;29197;44.788;10.366;2023-12-29T00:26:45;51.40;;;32.65;;
43606;SDS011;29197;44.788;10.366;2023-12-29T00:29:35;55.88;;;31.25;;
43606;SDS011;29197;44.788;10.366;2023-12-29T00:32:24;55.50;;;32.90;;
43606;SDS011;29197;44.788;10.366;2023-12-29T00:35:13;57.40;;;33.53;;
43606;SDS011;29197;44.788;10.366;2023-12-29T00:38:02;53.38;;;33.03;;
43606;SDS011;29197;44.788;10.366;2023-12-29T00:40:51;48.80;;;29.97;;
43606;SDS011;29197;44.788;10.366;2023-12-29T00:43:41;52.28;;;30.23;;
43606;SDS011;29197;44.788;10.366;2023-12-29T00:46:32;47.47;;;30.05;;
43606;SDS011;29197;44.788;10.366;2023-12-29T00:49:20;51.33;;;29.87;;
43606;SDS011;29197;44.788;10.366;2023-12-29T00:52:10;52.00;;;31.70;;
43606;SDS011;29197;44.788;10.366;2023-12-29T00:54:59;50.60;;;30.00;;
43606;SDS011;29197;44.788;10.366;2023-12-29T00:57:48;55.47;;;32.42;;
43606;SDS011;29197;44.788;10.366;2023-12-29T01:00:37;48.33;;;29.98;;
43606;SDS011;29197;44.788;10.366;2023-12-29T01:03:27;48.85;;;31.30;;
43606;SDS011;29197;44.788;10.366;2023-12-29T01:06:16;54.23;;;32.30;;
43606;SDS011;29197;44.788;10.366;2023-12-29T01:09:05;48.30;;;29.30;;
43606;SDS011;29197;44.788;10.366;2023-12-29T01:11:55;46.80;;;28.95;;
43606;SDS011;29197;44.788;10.366;2023-12-29T01:14:44;50.33;;;30.88;;
43606;SDS011;29197;44.788;10.366;2023-12-29T01:17:33;48.15;;;28.85;;
43606;SDS011;29197;44.788;10.366;2023-12-29T01:20:26;44.75;;;27.60;;
43606;SDS011;29197;44.788;10.366;2023-12-29T01:23:15;55.78;;;31.85;;
43606;SDS011;29197;44.788;10.366;2023-12-29T01:26:04;58.67;;;32.60;;
43606;SDS011;29197;44.788;10.366;2023-12-29T01:28:53;51.40;;;31.67;;
43606;SDS011;29197;44.788;10.366;2023-12-29T01:31:42;51.33;;;30.15;;
43606;SDS011;29197;44.788;10.366;2023-12-29T01:34:31;45.95;;;28.90;;
43606;SDS011;29197;44.788;10.366;2023-12-29T01:37:22;50.67;;;28.35;;
43606;SDS011;29197;44.788;10.366;2023-12-29T01:40:11;51.03;;;28.73;;
43606;SDS011;29197;44.788;10.366;2023-12-29T01:43:00;52.53;;;30.20;;
43606;SDS011;29197;44.788;10.366;2023-12-29T01:45:49;48.83;;;29.73;;
43606;SDS011;29197;44.788;10.366;2023-12-29T01:48:43;51.63;;;29.33;;
43606;SDS011;29197;44.788;10.366;2023-12-29T01:51:32;44.30;;;27.90;;
43606;SDS011;29197;44.788;10.366;2023-12-29T01:54:23;47.17;;;30.50;;
43606;SDS011;29197;44.788;10.366;2023-12-29T01:57:12;47.70;;;28.67;;
43606;SDS011;29197;44.788;10.366;2023-12-29T02:00:02;50.83;;;29.00;;
43606;SDS011;29197;44.788;10.366;2023-12-29T02:02:52;49.30;;;29.57;;
43606;SDS011;29197;44.788;10.366;2023-12-29T02:05:41;55.35;;;30.10;;
43606;SDS011;29197;44.788;10.366;2023-12-29T02:08:31;45.37;;;28.20;;
43606;SDS011;29197;44.788;10.366;2023-12-29T02:11:21;46.70;;;28.40;;
43606;SDS011;29197;44.788;10.366;2023-12-29T02:14:10;44.50;;;27.90;;
43606;SDS011;29197;44.788;10.366;2023-12-29T02:17:01;51.63;;;29.80;;
43606;SDS011;29197;44.788;10.366;2023-12-29T02:19:50;46.17;;;28.70;;
43606;SDS011;29197;44.788;10.366;2023-12-29T02:22:40;49.80;;;29.50;;
43606;SDS011;29197;44.788;10.366;2023-12-29T02:25:30;52.97;;;32.57;;
43606;SDS011;29197;44.788;10.366;2023-12-29T02:28:20;50.50;;;31.20;;
43606;SDS011;29197;44.788;10.366;2023-12-29T02:31:13;50.97;;;30.10;;
43606;SDS011;29197;44.788;10.366;2023-12-29T02:34:03;50.27;;;30.73;;
43606;SDS011;29197;44.788;10.366;2023-12-29T02:36:54;50.83;;;31.50;;
43606;SDS011;29197;44.788;10.366;2023-12-29T02:39:43;48.90;;;30.17;;
43606;SDS011;29197;44.788;10.366;2023-12-29T02:42:33;46.45;;;29.15;;
43606;SDS011;29197;44.788;10.366;2023-12-29T02:45:22;50.80;;;30.63;;
43606;SDS011;29197;44.788;10.366;2023-12-29T02:48:11;53.13;;;31.63;;
43606;SDS011;29197;44.788;10.366;2023-12-29T02:51:00;54.87;;;32.13;;
43606;SDS011;29197;44.788;10.366;2023-12-29T02:53:49;51.30;;;31.58;;
43606;SDS011;29197;44.788;10.366;2023-12-29T02:56:38;49.40;;;30.80;;
43606;SDS011;29197;44.788;10.366;2023-12-29T02:59:29;56.03;;;32.07;;
43606;SDS011;29197;44.788;10.366;2023-12-29T03:02:18;58.60;;;32.23;;
43606;SDS011;29197;44.788;10.366;2023-12-29T03:05:07;53.93;;;31.83;;
43606;SDS011;29197;44.788;10.366;2023-12-29T03:07:56;57.57;;;34.13;;
43606;SDS011;29197;44.788;10.366;2023-12-29T03:10:45;59.83;;;33.77;;
43606;SDS011;29197;44.788;10.366;2023-12-29T03:13:34;60.47;;;36.03;;
43606;SDS011;29197;44.788;10.366;2023-12-29T03:16:24;61.43;;;33.77;;
43606;SDS011;29197;44.788;10.366;2023-12-29T03:19:13;60.23;;;34.53;;
43606;SDS011;29197;44.788;10.366;2023-12-29T03:22:02;63.20;;;33.07;;
43606;SDS011;29197;44.788;10.366;2023-12-29T03:24:51;60.23;;;35.23;;
43606;SDS011;29197;44.788;10.366;2023-12-29T03:27:40;57.07;;;33.70;;
43606;SDS011;29197;44.788;10.366;2023-12-29T03:30:29;60.37;;;35.67;;
43606;SDS011;29197;44.788;10.366;2023-12-29T03:33:20;58.97;;;35.57;;
43606;SDS011;29197;44.788;10.366;2023-12-29T03:36:09;61.70;;;35.60;;
43606;SDS011;29197;44.788;10.366;2023-12-29T03:38:58;65.90;;;37.57;;
43606;SDS011;29197;44.788;10.366;2023-12-29T03:41:46;64.17;;;36.40;;
43606;SDS011;29197;44.788;10.366;2023-12-29T03:44:35;66.03;;;38.87;;
43606;SDS011;29197;44.788;10.366;2023-12-29T03:47:24;65.27;;;37.57;;
43606;SDS011;29197;44.788;10.366;2023-12-29T03:50:14;62.88;;;38.25;;
43606;SDS011;29197;44.788;10.366;2023-12-29T03:53:03;65.13;;;39.20;;
43606;SDS011;29197;44.788;10.366;2023-12-29T03:55:52;68.73;;;38.90;;
43606;SDS011;29197;44.788;10.366;2023-12-29T03:58:41;62.87;;;37.07;;
43606;SDS011;29197;44.788;10.366;2023-12-29T04:01:32;65.43;;;37.90;;
43606;SDS011;29197;44.788;10.366;2023-12-29T04:04:22;59.07;;;35.47;;
43606;SDS011;29197;44.788;10.366;2023-12-29T04:07:12;62.13;;;37.73;;
43606;SDS011;29197;44.788;10.366;2023-12-29T04:10:01;62.57;;;37.70;;
43606;SDS011;29197;44.788;10.366;2023-12-29T04:12:51;61.30;;;36.30;;
43606;SDS011;29197;44.788;10.366;2023-12-29T04:15:40;69.00;;;38.00;;
43606;SDS011;29197;44.788;10.366;2023-12-29T04:18:29;64.87;;;37.80;;
43606;SDS011;29197;44.788;10.366;2023-12-29T04:21:18;58.63;;;35.33;;
43606;SDS011;29197;44.788;10.366;2023-12-29T04:24:08;59.53;;;35.90;;
43606;SDS011;29197;44.788;10.366;2023-12-29T04:26:57;57.80;;;33.83;;
43606;SDS011;29197;44.788;10.366;2023-12-29T04:29:46;58.67;;;35.40;;
43606;SDS011;29197;44.788;10.366;2023-12-29T04:32:35;50.50;;;31.63;;
43606;SDS011;29197;44.788;10.366;2023-12-29T04:35:24;55.10;;;33.50;;
43606;SDS011;29197;44.788;10.366;2023-12-29T04:38:13;60.13;;;33.20;;
43606;SDS011;29197;44.788;10.366;2023-12-29T04:41:05;56.20;;;32.23;;
43606;SDS011;29197;44.788;10.366;2023-12-29T04:43:54;53.97;;;33.00;;
43606;SDS011;29197;44.788;10.366;2023-12-29T04:46:43;51.90;;;33.10;;
43606;SDS011;29197;44.788;10.366;2023-12-29T04:49:31;53.33;;;31.77;;
43606;SDS011;29197;44.788;10.366;2023-12-29T04:52:20;56.73;;;33.13;;
43606;SDS011;29197;44.788;10.366;2023-12-29T04:55:09;53.00;;;32.30;;
43606;SDS011;29197;44.788;10.366;2023-12-29T04:58:01;56.40;;;32.38;;
43606;SDS011;29197;44.788;10.366;2023-12-29T05:00:51;44.77;;;29.20;;
43606;SDS011;29197;44.788;10.366;2023-12-29T05:03:39;46.00;;;28.77;;
43606;SDS011;29197;44.788;10.366;2023-12-29T05:06:28;46.63;;;29.40;;
43606;SDS011;29197;44.788;10.366;2023-12-29T05:09:17;49.87;;;30.70;;
43606;SDS011;29197;44.788;10.366;2023-12-29T05:12:06;47.35;;;28.92;;
43606;SDS011;29197;44.788;10.366;2023-12-29T05:14:56;49.27;;;30.33;;
43606;SDS011;29197;44.788;10.366;2023-12-29T05:17:45;46.40;;;30.57;;
43606;SDS011;29197;44.788;10.366;2023-12-29T05:20:34;53.63;;;31.00;;
43606;SDS011;29197;44.788;10.366;2023-12-29T05:23:23;49.33;;;29.57;;
43606;SDS011;29197;44.788;10.366;2023-12-29T05:26:13;47.33;;;28.20;;
43606;SDS011;29197;44.788;10.366;2023-12-29T05:29:02;49.03;;;29.30;;
43606;SDS011;29197;44.788;10.366;2023-12-29T05:31:52;44.27;;;27.73;;
43606;SDS011;29197;44.788;10.366;2023-12-29T05:34:41;42.47;;;26.93;;
43606;SDS011;29197;44.788;10.366;2023-12-29T05:37:30;41.13;;;25.77;;
43606;SDS011;29197;44.788;10.366;2023-12-29T05:40:19;41.63;;;26.60;;
43606;SDS011;29197;44.788;10.366;2023-12-29T05:43:08;41.63;;;26.00;;
43606;SDS011;29197;44.788;10.366;2023-12-29T05:45:57;39.10;;;25.13;;
43606;SDS011;29197;44.788;10.366;2023-12-29T05:48:47;40.40;;;26.00;;
43606;SDS011;29197;44.788;10.366;2023-12-29T05:51:38;40.63;;;25.20;;
43606;SDS011;29197;44.788;10.366;2023-12-29T05:54:27;41.17;;;25.20;;
43606;SDS011;29197;44.788;10.366;2023-12-29T05:57:15;44.63;;;26.60;;
43606;SDS011;29197;44.788;10.366;2023-12-29T06:00:05;38.28;;;25.73;;
43606;SDS011;29197;44.788;10.366;2023-12-29T06:02:55;48.97;;;29.00;;
43606;SDS011;29197;44.788;10.366;2023-12-29T06:05:45;49.50;;;30.50;;
43606;SDS011;29197;44.788;10.366;2023-12-29T06:08:34;55.10;;;32.87;;
43606;SDS011;29197;44.788;10.366;2023-12-29T06:11:23;55.47;;;31.30;;
43606;SDS011;29197;44.788;10.366;2023-12-29T06:14:12;57.13;;;33.25;;
43606;SDS011;29197;44.788;10.366;2023-12-29T06:17:01;47.03;;;30.30;;
43606;SDS011;29197;44.788;10.366;2023-12-29T06:19:50;50.20;;;29.63;;
43606;SDS011;29197;44.788;10.366;2023-12-29T06:22:40;48.72;;;30.52;;
43606;SDS011;29197;44.788;10.366;2023-12-29T06:25:29;46.55;;;29.85;;
43606;SDS011;29197;44.788;10.366;2023-12-29T06:28:20;53.95;;;31.67;;
43606;SDS011;29197;44.788;10.366;2023-12-29T06:31:09;49.77;;;31.07;;
43606;SDS011;29197;44.788;10.366;2023-12-29T06:33:58;46.58;;;29.02;;
43606;SDS011;29197;44.788;10.366;2023-12-29T06:36:47;52.67;;;31.43;;
43606;SDS011;29197;44.788;10.366;2023-12-29T06:39:37;48.05;;;30.08;;
43606;SDS011;29197;44.788;10.366;2023-12-29T06:42:26;49.67;;;29.27;;
43606;SDS011;29197;44.788;10.366;2023-12-29T06:45:15;48.50;;;28.98;;
43606;SDS011;29197;44.788;10.366;2023-12-29T06:48:04;46.35;;;30.05;;
43606;SDS011;29197;44.788;10.366;2023-12-29T06:50:53;49.67;;;28.98;;
43606;SDS011;29197;44.788;10.366;2023-12-29T06:53:42;48.80;;;31.27;;
43606;SDS011;29197;44.788;10.366;2023-12-29T06:56:32;47.50;;;30.03;;
43606;SDS011;29197;44.788;10.366;2023-12-29T06:59:21;48.00;;;30.65;;
43606;SDS011;29197;44.788;10.366;2023-12-29T07:02:10;47.40;;;28.93;;
43606;SDS011;29197;44.788;10.366;2023-12-29T07:04:59;47.80;;;28.38;;
43606;SDS011;29197;44.788;10.366;2023-12-29T07:07:48;46.42;;;29.55;;
43606;SDS011;29197;44.788;10.366;2023-12-29T07:10:37;48.00;;;28.63;;
43606;SDS011;29197;44.788;10.366;2023-12-29T07:13:27;42.80;;;28.43;;
43606;SDS011;29197;44.788;10.366;2023-12-29T07:16:16;47.43;;;29.83;;
43606;SDS011;29197;44.788;10.366;2023-12-29T07:19:06;46.05;;;28.88;;
43606;SDS011;29197;44.788;10.366;2023-12-29T07:21:55;48.75;;;29.52;;
43606;SDS011;29197;44.788;10.366;2023-12-29T07:24:44;46.92;;;28.67;;
43606;SDS011;29197;44.788;10.366;2023-12-29T07:27:33;50.37;;;29.23;;
43606;SDS011;29197;44.788;10.366;2023-12-29T07:30:23;49.70;;;30.67;;
43606;SDS011;29197;44.788;10.366;2023-12-29T07:33:12;54.67;;;32.30;;
43606;SDS011;29197;44.788;10.366;2023-12-29T07:36:01;47.63;;;29.47;;
43606;SDS011;29197;44.788;10.366;2023-12-29T07:38:50;45.37;;;28.00;;
43606;SDS011;29197;44.788;10.366;2023-12-29T07:41:39;49.33;;;28.00;;
43606;SDS011;29197;44.788;10.366;2023-12-29T07:44:29;48.50;;;28.50;;
43606;SDS011;29197;44.788;10.366;2023-12-29T07:47:20;45.63;;;28.57;;
43606;SDS011;29197;44.788;10.366;2023-12-29T07:50:09;47.80;;;28.87;;
43606;SDS011;29197;44.788;10.366;2023-12-29T07:52:58;48.65;;;30.25;;
43606;SDS011;29197;44.788;10.366;2023-12-29T07:55:49;50.08;;;31.15;;
43606;SDS011;29197;44.788;10.366;2023-12-29T07:58:40;52.90;;;32.30;;
43606;SDS011;29197;44.788;10.366;2023-12-29T08:01:32;58.60;;;33.37;;
43606;SDS011;29197;44.788;10.366;2023-12-29T08:04:25;58.03;;;33.50;;
43606;SDS011;29197;44.788;10.366;2023-12-29T08:07:14;52.03;;;31.63;;
43606;SDS011;29197;44.788;10.366;2023-12-29T08:10:03;55.83;;;33.40;;
43606;SDS011;29197;44.788;10.366;2023-12-29T08:12:52;53.63;;;31.53;;
43606;SDS011;29197;44.788;10.366;2023-12-29T08:15:41;57.27;;;31.00;;
43606;SDS011;29197;44.788;10.366;2023-12-29T08:18:30;56.07;;;33.30;;
43606;SDS011;29197;44.788;10.366;2023-12-29T08:21:21;51.20;;;31.57;;
43606;SDS011;29197;44.788;10.366;2023-12-29T08:24:09;48.10;;;29.90;;
43606;SDS011;29197;44.788;10.366;2023-12-29T08:26:58;45.37;;;28.33;;
43606;SDS011;29197;44.788;10.366;2023-12-29T08:29:47;48.57;;;28.43;;
43606;SDS011;29197;44.788;10.366;2023-12-29T08:32:36;42.37;;;25.57;;
43606;SDS011;29197;44.788;10.366;2023-12-29T08:35:25;50.13;;;30.13;;
43606;SDS011;29197;44.788;10.366;2023-12-29T08:38:15;42.47;;;26.85;;
43606;SDS011;29197;44.788;10.366;2023-12-29T08:41:04;52.83;;;31.10;;
43606;SDS011;29197;44.788;10.366;2023-12-29T08:43:53;51.67;;;29.35;;
43606;SDS011;29197;44.788;10.366;2023-12-29T08:46:42;48.53;;;30.63;;
43606;SDS011;29197;44.788;10.366;2023-12-29T08:49:31;48.10;;;28.90;;
43606;SDS011;29197;44.788;10.366;2023-12-29T08:52:20;47.03;;;29.50;;
43606;SDS011;29197;44.788;10.366;2023-12-29T08:55:10;73.40;;;40.43;;
43606;SDS011;29197;44.788;10.366;2023-12-29T08:57:59;54.20;;;34.47;;
43606;SDS011;29197;44.788;10.366;2023-12-29T09:00:49;50.53;;;28.47;;
43606;SDS011;29197;44.788;10.366;2023-12-29T09:03:38;49.77;;;29.93;;
43606;SDS011;29197;44.788;10.366;2023-12-29T09:06:27;46.07;;;28.37;;
43606;SDS011;29197;44.788;10.366;2023-12-29T09:09:15;46.77;;;28.90;;
43606;SDS011;29197;44.788;10.366;2023-12-29T09:12:06;50.13;;;32.57;;
43606;SDS011;29197;44.788;10.366;2023-12-29T09:14:55;44.93;;;28.33;;
43606;SDS011;29197;44.788;10.366;2023-12-29T09:17:44;46.53;;;29.73;;
43606;SDS011;29197;44.788;10.366;2023-12-29T09:20:33;47.30;;;28.50;;
43606;SDS011;29197;44.788;10.366;2023-12-29T09:23:22;44.28;;;26.98;;
43606;SDS011;29197;44.788;10.366;2023-12-29T09:26:10;50.03;;;31.67;;
43606;SDS011;29197;44.788;10.366;2023-12-29T09:29:01;45.40;;;29.45;;
43606;SDS011;29197;44.788;10.366;2023-12-29T09:31:50;44.63;;;28.20;;
43606;SDS011;29197;44.788;10.366;2023-12-29T09:34:39;45.22;;;28.13;;
43606;SDS011;29197;44.788;10.366;2023-12-29T09:37:29;44.63;;;27.63;;
43606;SDS011;29197;44.788;10.366;2023-12-29T09:40:18;45.60;;;28.23;;
43606;SDS011;29197;44.788;10.366;2023-12-29T09:43:07;43.45;;;26.92;;
43606;SDS011;29197;44.788;10.366;2023-12-29T09:45:58;41.55;;;24.58;;
43606;SDS011;29197;44.788;10.366;2023-12-29T09:48:47;37.25;;;24.98;;
43606;SDS011;29197;44.788;10.366;2023-12-29T09:51:39;34.47;;;22.48;;
43606;SDS011;29197;44.788;10.366;2023-12-29T09:54:29;37.00;;;24.42;;
43606;SDS011;29197;44.788;10.366;2023-12-29T09:57:19;36.28;;;24.13;;
43606;SDS011;29197;44.788;10.366;2023-12-29T10:00:10;42.17;;;25.08;;
43606;SDS011;29197;44.788;10.366;2023-12-29T10:03:00;36.33;;;24.35;;
43606;SDS011;29197;44.788;10.366;2023-12-29T10:05:50;37.97;;;23.75;;
43606;SDS011;29197;44.788;10.366;2023-12-29T10:08:39;36.50;;;22.20;;
43606;SDS011;29197;44.788;10.366;2023-12-29T10:11:32;37.25;;;24.10;;
43606;SDS011;29197;44.788;10.366;2023-12-29T10:14:27;34.87;;;22.13;;
43606;SDS011;29197;44.788;10.366;2023-12-29T10:17:20;41.08;;;23.00;;
43606;SDS011;29197;44.788;10.366;2023-12-29T10:20:15;35.15;;;22.35;;
43606;SDS011;29197;44.788;10.366;2023-12-29T10:23:10;39.63;;;23.33;;
43606;SDS011;29197;44.788;10.366;2023-12-29T10:26:00;35.22;;;22.35;;
43606;SDS011;29197;44.788;10.366;2023-12-29T10:28:50;35.25;;;21.40;;
43606;SDS011;29197;44.788;10.366;2023-12-29T10:31:39;36.35;;;21.15;;
43606;SDS011;29197;44.788;10.366;2023-12-29T10:34:28;33.17;;;21.75;;
43606;SDS011;29197;44.788;10.366;2023-12-29T10:37:23;33.60;;;21.33;;
43606;SDS011;29197;44.788;10.366;2023-12-29T10:40:16;32.53;;;21.05;;
43606;SDS011;29197;44.788;10.366;2023-12-29T10:43:05;34.20;;;22.08;;
43606;SDS011;29197;44.788;10.366;2023-12-29T10:46:03;32.85;;;22.42;;
43606;SDS011;29197;44.788;10.366;2023-12-29T10:48:55;32.75;;;22.90;;
43606;SDS011;29197;44.788;10.366;2023-12-29T10:51:55;38.45;;;24.38;;
43606;SDS011;29197;44.788;10.366;2023-12-29T10:54:46;31.88;;;21.05;;
43606;SDS011;29197;44.788;10.366;2023-12-29T10:57:35;32.78;;;19.90;;
43606;SDS011;29197;44.788;10.366;2023-12-29T11:00:24;30.05;;;19.50;;
43606;SDS011;29197;44.788;10.366;2023-12-29T11:03:17;31.85;;;18.55;;
43606;SDS011;29197;44.788;10.366;2023-12-29T11:06:06;32.42;;;20.20;;
43606;SDS011;29197;44.788;10.366;2023-12-29T11:08:55;28.17;;;18.40;;
43606;SDS011;29197;44.788;10.366;2023-12-29T11:11:46;30.98;;;19.17;;
43606;SDS011;29197;44.788;10.366;2023-12-29T11:14:36;27.60;;;19.10;;
43606;SDS011;29197;44.788;10.366;2023-12-29T11:17:29;28.10;;;17.90;;
43606;SDS011;29197;44.788;10.366;2023-12-29T11:20:19;30.70;;;19.05;;
43606;SDS011;29197;44.788;10.366;2023-12-29T11:23:08;26.58;;;17.67;;
43606;SDS011;29197;44.788;10.366;2023-12-29T11:25:57;28.02;;;19.42;;
43606;SDS011;29197;44.788;10.366;2023-12-29T11:28:48;37.05;;;21.33;;
43606;SDS011;29197;44.788;10.366;2023-12-29T11:31:37;33.78;;;20.52;;
43606;SDS011;29197;44.788;10.366;2023-12-29T11:34:29;30.13;;;18.67;;
43606;SDS011;29197;44.788;10.366;2023-12-29T11:37:21;35.67;;;21.15;;
43606;SDS011;29197;44.788;10.366;2023-12-29T11:40:16;33.42;;;19.95;;
43606;SDS011;29197;44.788;10.366;2023-12-29T11:43:07;30.48;;;19.17;;
43606;SDS011;29197;44.788;10.366;2023-12-29T11:45:58;30.48;;;19.48;;
43606;SDS011;29197;44.788;10.366;2023-12-29T11:48:53;29.17;;;19.58;;
43606;SDS011;29197;44.788;10.366;2023-12-29T11:51:44;29.33;;;18.93;;
43606;SDS011;29197;44.788;10.366;2023-12-29T11:54:36;31.02;;;19.50;;
43606;SDS011;29197;44.788;10.366;2023-12-29T11:57:31;32.13;;;20.98;;
43606;SDS011;29197;44.788;10.366;2023-12-29T12:00:20;34.20;;;19.95;;
43606;SDS011;29197;44.788;10.366;2023-12-29T12:03:18;35.55;;;20.42;;
43606;SDS011;29197;44.788;10.366;2023-12-29T12:06:08;32.22;;;20.42;;
43606;SDS011;29197;44.788;10.366;2023-12-29T12:12:02;27.00;;;17.98;;
43606;SDS011;29197;44.788;10.366;2023-12-29T12:14:52;30.98;;;19.13;;
43606;SDS011;29197;44.788;10.366;2023-12-29T12:17:42;30.45;;;20.05;;
43606;SDS011;29197;44.788;10.366;2023-12-29T12:20:35;32.08;;;19.52;;
43606;SDS011;29197;44.788;10.366;2023-12-29T12:23:24;31.80;;;20.45;;
43606;SDS011;29197;44.788;10.366;2023-12-29T12:26:13;31.02;;;20.00;;
43606;SDS011;29197;44.788;10.366;2023-12-29T12:29:02;36.15;;;20.80;;
43606;SDS011;29197;44.788;10.366;2023-12-29T12:31:52;35.92;;;21.58;;
43606;SDS011;29197;44.788;10.366;2023-12-29T12:34:41;34.35;;;21.20;;
43606;SDS011;29197;44.788;10.366;2023-12-29T12:37:32;33.95;;;21.17;;
43606;SDS011;29197;44.788;10.366;2023-12-29T12:40:24;34.58;;;21.90;;
43606;SDS011;29197;44.788;10.366;2023-12-29T12:43:14;37.15;;;22.15;;
43606;SDS011;29197;44.788;10.366;2023-12-29T12:46:03;32.08;;;19.83;;
43606;SDS011;29197;44.788;10.366;2023-12-29T12:48:52;37.03;;;21.42;;
43606;SDS011;29197;44.788;10.366;2023-12-29T12:51:42;31.65;;;19.88;;
43606;SDS011;29197;44.788;10.366;2023-12-29T12:54:33;33.45;;;20.88;;
43606;SDS011;29197;44.788;10.366;2023-12-29T12:57:23;30.13;;;19.58;;
43606;SDS011;29197;44.788;10.366;2023-12-29T13:00:12;31.60;;;19.77;;
43606;SDS011;29197;44.788;10.366;2023-12-29T13:03:03;28.05;;;18.42;;
43606;SDS011;29197;44.788;10.366;2023-12-29T13:05:52;30.23;;;18.40;;
43606;SDS011;29197;44.788;10.366;2023-12-29T13:08:41;25.60;;;18.08;;
43606;SDS011;29197;44.788;10.366;2023-12-29T13:11:32;28.00;;;17.77;;
43606;SDS011;29197;44.788;10.366;2023-12-29T13:14:21;31.92;;;19.60;;
43606;SDS011;29197;44.788;10.366;2023-12-29T13:17:10;33.28;;;19.98;;
43606;SDS011;29197;44.788;10.366;2023-12-29T13:20:01;35.13;;;20.40;;
43606;SDS011;29197;44.788;10.366;2023-12-29T13:22:51;30.20;;;20.45;;
43606;SDS011;29197;44.788;10.366;2023-12-29T13:25:42;34.50;;;22.60;;
43606;SDS011;29197;44.788;10.366;2023-12-29T13:28:34;29.25;;;19.40;;
43606;SDS011;29197;44.788;10.366;2023-12-29T13:31:26;28.40;;;18.83;;
43606;SDS011;29197;44.788;10.366;2023-12-29T13:34:16;35.72;;;20.67;;
43606;SDS011;29197;44.788;10.366;2023-12-29T13:37:08;28.67;;;17.20;;
43606;SDS011;29197;44.788;10.366;2023-12-29T13:39:59;26.73;;;17.88;;
43606;SDS011;29197;44.788;10.366;2023-12-29T13:42:50;26.77;;;18.05;;
43606;SDS011;29197;44.788;10.366;2023-12-29T13:45:42;29.98;;;19.35;;
43606;SDS011;29197;44.788;10.366;2023-12-29T13:48:31;28.80;;;18.27;;
43606;SDS011;29197;44.788;10.366;2023-12-29T13:51:22;36.80;;;20.77;;
43606;SDS011;29197;44.788;10.366;2023-12-29T13:54:11;32.85;;;19.75;;
43606;SDS011;29197;44.788;10.366;2023-12-29T13:57:01;34.90;;;20.20;;
43606;SDS011;29197;44.788;10.366;2023-12-29T13:59:50;36.47;;;21.83;;
43606;SDS011;29197;44.788;10.366;2023-12-29T14:02:40;35.33;;;21.50;;
43606;SDS011;29197;44.788;10.366;2023-12-29T14:05:31;39.17;;;22.67;;
43606;SDS011;29197;44.788;10.366;2023-12-29T14:08:23;35.75;;;21.73;;
43606;SDS011;29197;44.788;10.366;2023-12-29T14:11:13;33.92;;;21.20;;
43606;SDS011;29197;44.788;10.366;2023-12-29T14:14:03;32.72;;;21.33;;
43606;SDS011;29197;44.788;10.366;2023-12-29T14:16:52;33.67;;;20.92;;
43606;SDS011;29197;44.788;10.366;2023-12-29T14:19:42;35.17;;;22.38;;
43606;SDS011;29197;44.788;10.366;2023-12-29T14:22:31;32.80;;;20.90;;
43606;SDS011;29197;44.788;10.366;2023-12-29T14:25:20;35.17;;;20.35;;
43606;SDS011;29197;44.788;10.366;2023-12-29T14:28:14;33.85;;;21.63;;
43606;SDS011;29197;44.788;10.366;2023-12-29T14:31:03;31.77;;;20.10;;
43606;SDS011;29197;44.788;10.366;2023-12-29T14:33:52;32.88;;;20.00;;
43606;SDS011;29197;44.788;10.366;2023-12-29T14:36:42;37.17;;;21.27;;
43606;SDS011;29197;44.788;10.366;2023-12-29T14:39:32;31.40;;;19.83;;
43606;SDS011;29197;44.788;10.366;2023-12-29T14:42:21;25.40;;;17.60;;
43606;SDS011;29197;44.788;10.366;2023-12-29T14:45:10;29.55;;;17.35;;
43606;SDS011;29197;44.788;10.366;2023-12-29T14:48:02;30.25;;;18.33;;
43606;SDS011;29197;44.788;10.366;2023-12-29T14:50:55;27.73;;;18.75;;
43606;SDS011;29197;44.788;10.366;2023-12-29T14:53:49;33.40;;;19.55;;
43606;SDS011;29197;44.788;10.366;2023-12-29T14:56:38;37.63;;;21.13;;
43606;SDS011;29197;44.788;10.366;2023-12-29T14:59:27;31.52;;;20.55;;
43606;SDS011;29197;44.788;10.366;2023-12-29T15:02:17;35.28;;;21.02;;
43606;SDS011;29197;44.788;10.366;2023-12-29T15:05:06;33.60;;;20.55;;
43606;SDS011;29197;44.788;10.366;2023-12-29T15:07:56;31.48;;;19.52;;
43606;SDS011;29197;44.788;10.366;2023-12-29T15:10:46;32.00;;;20.17;;
43606;SDS011;29197;44.788;10.366;2023-12-29T15:13:35;34.58;;;21.20;;
43606;SDS011;29197;44.788;10.366;2023-12-29T15:16:24;37.33;;;24.25;;
43606;SDS011;29197;44.788;10.366;2023-12-29T15:19:13;37.85;;;23.77;;
43606;SDS011;29197;44.788;10.366;2023-12-29T15:22:02;37.38;;;23.05;;
43606;SDS011;29197;44.788;10.366;2023-12-29T15:24:51;39.78;;;23.52;;
43606;SDS011;29197;44.788;10.366;2023-12-29T15:27:42;40.63;;;23.35;;
43606;SDS011;29197;44.788;10.366;2023-12-29T15:30:30;41.03;;;23.63;;
43606;SDS011;29197;44.788;10.366;2023-12-29T15:33:19;40.05;;;23.42;;
43606;SDS011;29197;44.788;10.366;2023-12-29T15:36:11;34.20;;;21.63;;
43606;SDS011;29197;44.788;10.366;2023-12-29T15:39:01;33.38;;;20.33;;
43606;SDS011;29197;44.788;10.366;2023-12-29T15:41:51;37.25;;;22.63;;
43606;SDS011;29197;44.788;10.366;2023-12-29T15:44:41;34.03;;;22.48;;
43606;SDS011;29197;44.788;10.366;2023-12-29T15:47:30;32.50;;;21.08;;
43606;SDS011;29197;44.788;10.366;2023-12-29T15:50:19;32.53;;;21.27;;
43606;SDS011;29197;44.788;10.366;2023-12-29T15:53:08;36.03;;;22.15;;
43606;SDS011;29197;44.788;10.366;2023-12-29T15:55:56;35.53;;;22.05;;
43606;SDS011;29197;44.788;10.366;2023-12-29T15:58:49;33.95;;;21.40;;
43606;SDS011;29197;44.788;10.366;2023-12-29T16:01:39;35.35;;;23.10;;
43606;SDS011;29197;44.788;10.366;2023-12-29T16:04:28;37.20;;;22.88;;
43606;SDS011;29197;44.788;10.366;2023-12-29T16:07:17;34.45;;;22.02;;
43606;SDS011;29197;44.788;10.366;2023-12-29T16:10:06;32.47;;;22.07;;
43606;SDS011;29197;44.788;10.366;2023-12-29T16:12:56;38.65;;;23.98;;
43606;SDS011;29197;44.788;10.366;2023-12-29T16:15:45;36.80;;;22.65;;
43606;SDS011;29197;44.788;10.366;2023-12-29T16:18:35;32.60;;;21.10;;
43606;SDS011;29197;44.788;10.366;2023-12-29T16:21:24;42.00;;;24.92;;